createdAt,value
2019-05-11T00:00:31.326Z,87.70
2019-05-11T00:03:05.415Z,87.90
2019-05-11T00:05:35.386Z,87.80
2019-05-11T00:08:07.776Z,88.00
2019-05-11T00:10:39.413Z,87.90
2019-05-11T00:13:12.585Z,87.90
2019-05-11T00:15:44.000Z,88.10
2019-05-11T00:18:14.101Z,88.30
2019-05-11T00:20:45.237Z,88.30
2019-05-11T00:23:16.967Z,88.00
2019-05-11T00:25:47.865Z,88.10
2019-05-11T00:28:19.276Z,88.10
2019-05-11T00:30:49.200Z,88.20
2019-05-11T00:33:18.999Z,88.20
2019-05-11T00:35:50.249Z,88.10
2019-05-11T00:38:20.223Z,87.80
2019-05-11T00:40:52.689Z,87.80
2019-05-11T00:43:25.147Z,87.70
2019-05-11T00:45:57.486Z,87.80
2019-05-11T00:48:28.425Z,88.00
2019-05-11T00:51:01.485Z,88.40
2019-05-11T00:53:35.291Z,88.50
2019-05-11T00:56:07.783Z,88.30
2019-05-11T00:58:38.842Z,88.30
2019-05-11T01:01:09.924Z,88.40
2019-05-11T01:03:43.116Z,88.30
2019-05-11T01:06:13.041Z,88.40
2019-05-11T01:08:45.679Z,88.40
2019-05-11T01:11:17.042Z,88.50
2019-05-11T01:13:46.943Z,88.50
2019-05-11T01:16:16.868Z,88.40
2019-05-11T01:18:53.445Z,88.30
2019-05-11T01:21:25.819Z,88.40
2019-05-11T01:24:18.491Z,88.50
2019-05-11T01:26:53.302Z,88.40
2019-05-11T01:29:25.680Z,88.30
2019-05-11T01:31:59.672Z,88.30
2019-05-11T01:34:30.209Z,88.60
2019-05-11T01:37:02.040Z,88.70
2019-05-11T01:39:33.585Z,88.80
2019-05-11T01:42:06.088Z,88.70
2019-05-11T01:44:38.609Z,89.10
2019-05-11T01:47:13.285Z,88.90
2019-05-11T01:49:45.762Z,88.80
2019-05-11T01:52:18.565Z,88.70
2019-05-11T01:54:51.509Z,89.10
2019-05-11T01:57:25.958Z,90.20
2019-05-11T01:59:58.968Z,90.30
2019-05-11T02:02:28.990Z,90.20
2019-05-11T02:05:16.395Z,90.00
2019-05-11T02:07:47.406Z,89.80
2019-05-11T02:10:20.036Z,89.70
2019-05-11T02:12:53.055Z,89.80
2019-05-11T02:15:25.667Z,89.90
2019-05-11T02:17:57.010Z,90.40
2019-05-11T02:20:29.187Z,90.20
2019-05-11T02:23:01.679Z,90.70
2019-05-11T02:25:32.712Z,91.00
2019-05-11T02:28:03.655Z,91.10
2019-05-11T02:30:34.925Z,90.80
2019-05-11T02:33:04.847Z,90.30
2019-05-11T02:35:34.813Z,90.20
2019-05-11T02:38:10.051Z,90.00
2019-05-11T02:40:40.043Z,90.10
2019-05-11T02:43:12.982Z,89.90
2019-05-11T02:45:45.157Z,89.90
2019-05-11T02:48:18.388Z,90.20
2019-05-11T02:50:48.676Z,89.50
2019-05-11T02:53:25.143Z,89.80
2019-05-11T02:55:57.250Z,89.70
2019-05-11T02:58:30.148Z,89.10
2019-05-11T03:01:01.692Z,88.90
2019-05-11T03:03:33.048Z,88.90
2019-05-11T03:06:07.241Z,88.70
2019-05-11T03:08:38.913Z,88.50
2019-05-11T03:11:09.964Z,89.20
2019-05-11T03:13:44.922Z,89.30
2019-05-11T03:16:17.627Z,89.70
2019-05-11T03:18:48.758Z,89.90
2019-05-11T03:21:22.401Z,90.20
2019-05-11T03:23:53.624Z,90.10
2019-05-11T03:26:25.777Z,90.40
2019-05-11T03:28:59.073Z,90.40
2019-05-11T03:31:31.981Z,90.20
2019-05-11T03:34:04.367Z,90.50
2019-05-11T03:36:35.830Z,90.40
2019-05-11T03:39:08.015Z,90.10
2019-05-11T03:41:39.035Z,90.00
2019-05-11T03:46:45.311Z,90.00
2019-05-11T03:51:50.955Z,90.00
2019-05-11T03:54:23.914Z,90.20
2019-05-11T03:56:59.126Z,90.20
2019-05-11T03:59:33.531Z,90.10
2019-05-11T04:02:06.015Z,90.20
2019-05-11T04:04:37.590Z,90.80
2019-05-11T04:07:11.539Z,90.90
2019-05-11T04:09:42.542Z,91.20
2019-05-11T04:12:32.951Z,91.30
2019-05-11T04:14:46.861Z,91.50
2019-05-11T04:17:19.627Z,91.70
2019-05-11T04:19:50.445Z,91.70
2019-05-11T04:22:21.814Z,91.70
2019-05-11T04:24:55.332Z,91.40
2019-05-11T04:30:00.866Z,90.80
2019-05-11T04:32:33.216Z,90.50
2019-05-11T04:35:05.621Z,90.50
2019-05-11T04:37:36.989Z,90.90
2019-05-11T04:40:07.508Z,91.10
2019-05-11T04:42:53.226Z,90.80
2019-05-11T04:45:34.703Z,90.10
2019-05-11T04:48:08.259Z,89.70
2019-05-11T04:50:39.300Z,89.20
2019-05-11T04:53:09.533Z,88.60
2019-05-11T04:55:43.889Z,88.50
2019-05-11T04:58:16.261Z,87.60
2019-05-11T05:00:47.411Z,87.10
2019-05-11T05:03:18.848Z,87.00
2019-05-11T05:05:51.377Z,87.00
2019-05-11T05:08:26.489Z,86.90
2019-05-11T05:10:58.635Z,86.50
2019-05-11T05:13:29.372Z,86.20
2019-05-11T05:16:20.212Z,85.00
2019-05-11T05:18:50.353Z,84.70
2019-05-11T05:21:21.865Z,84.60
2019-05-11T05:23:52.091Z,84.00
2019-05-11T05:26:22.401Z,83.30
2019-05-11T05:28:53.948Z,83.20
2019-05-11T05:31:25.550Z,83.50
2019-05-11T05:34:01.040Z,83.00
2019-05-11T05:36:30.380Z,83.00
2019-05-11T05:39:01.566Z,82.00
2019-05-11T05:41:33.289Z,80.80
2019-05-11T05:44:06.392Z,80.60
2019-05-11T05:46:36.621Z,80.90
2019-05-11T05:51:41.611Z,80.90
2019-05-11T05:54:11.569Z,80.10
2019-05-11T05:56:42.813Z,79.40
2019-05-11T05:59:13.742Z,77.70
2019-05-11T06:01:43.763Z,77.00
2019-05-11T06:04:13.829Z,77.70
2019-05-11T06:06:45.857Z,77.60
2019-05-11T06:09:17.405Z,78.10
2019-05-11T06:11:48.671Z,77.80
2019-05-11T06:14:21.401Z,76.80
2019-05-11T06:16:51.292Z,75.90
2019-05-11T06:19:25.671Z,73.50
2019-05-11T06:21:55.580Z,73.90
2019-05-11T06:24:26.922Z,74.20
2019-05-11T06:26:58.573Z,73.30
2019-05-11T06:29:31.775Z,72.20
2019-05-11T06:32:01.866Z,72.10
2019-05-11T06:34:34.264Z,70.90
2019-05-11T06:37:07.537Z,70.80
2019-05-11T06:39:39.889Z,72.20
2019-05-11T06:42:12.410Z,71.90
2019-05-11T06:44:43.393Z,71.40
2019-05-11T06:47:14.896Z,70.80
2019-05-11T06:49:46.302Z,70.60
2019-05-11T06:52:17.683Z,68.70
2019-05-11T06:54:48.709Z,70.50
2019-05-11T06:57:19.803Z,71.50
2019-05-11T06:59:52.339Z,70.60
2019-05-11T07:02:26.118Z,68.70
2019-05-11T07:04:58.745Z,68.60
2019-05-11T07:07:46.449Z,71.00
2019-05-11T07:10:10.571Z,69.00
2019-05-11T07:12:43.096Z,68.20
2019-05-11T07:15:16.614Z,67.50
2019-05-11T07:17:49.050Z,66.70
2019-05-11T07:20:20.291Z,67.00
2019-05-11T07:22:51.328Z,67.70
2019-05-11T07:25:22.413Z,66.50
2019-05-11T07:27:53.733Z,63.80
2019-05-11T07:30:23.846Z,65.30
2019-05-11T07:32:55.446Z,65.30
2019-05-11T07:35:28.483Z,67.20
2019-05-11T07:37:59.546Z,64.60
2019-05-11T07:40:31.374Z,66.20
2019-05-11T07:43:07.372Z,64.50
2019-05-11T07:45:38.707Z,63.90
2019-05-11T07:48:10.218Z,63.00
2019-05-11T07:50:41.286Z,63.30
2019-05-11T07:53:13.751Z,60.90
2019-05-11T07:55:45.080Z,65.70
2019-05-11T07:58:19.853Z,65.20
2019-05-11T08:00:51.163Z,65.20
2019-05-11T08:03:25.067Z,65.00
2019-05-11T08:06:02.926Z,63.80
2019-05-11T08:08:38.464Z,62.10
2019-05-11T08:11:10.550Z,62.80
2019-05-11T08:13:47.795Z,63.50
2019-05-11T08:16:19.647Z,61.60
2019-05-11T08:18:52.114Z,61.40
2019-05-11T08:21:25.364Z,62.00
2019-05-11T08:23:55.480Z,63.00
2019-05-11T08:26:25.498Z,62.30
2019-05-11T08:28:58.062Z,62.30
2019-05-11T08:31:29.659Z,62.50
2019-05-11T08:34:02.143Z,61.40
2019-05-11T08:36:32.540Z,62.20
2019-05-11T08:39:03.689Z,61.00
2019-05-11T08:41:35.444Z,61.50
2019-05-11T08:44:08.909Z,58.70
2019-05-11T08:49:19.091Z,57.40
2019-05-11T08:51:50.518Z,55.30
2019-05-11T08:54:28.876Z,59.70
2019-05-11T08:56:59.657Z,57.50
2019-05-11T08:59:32.230Z,59.30
2019-05-11T09:02:03.276Z,57.80
2019-05-11T09:04:42.113Z,56.80
2019-05-11T09:07:18.449Z,56.30
2019-05-11T09:09:51.207Z,56.10
2019-05-11T09:12:23.803Z,55.80
2019-05-11T09:14:58.192Z,56.20
2019-05-11T09:17:31.530Z,57.20
2019-05-11T09:20:03.491Z,55.40
2019-05-11T09:22:33.603Z,55.80
2019-05-11T09:25:05.963Z,55.50
2019-05-11T09:27:43.416Z,55.20
2019-05-11T09:30:18.798Z,56.20
2019-05-11T09:32:51.424Z,57.10
2019-05-11T09:35:46.663Z,55.60
2019-05-11T09:38:08.016Z,54.70
2019-05-11T09:40:38.541Z,55.30
2019-05-11T09:43:09.678Z,55.50
2019-05-11T09:45:48.364Z,53.70
2019-05-11T09:48:17.979Z,53.00
2019-05-11T09:50:49.028Z,56.50
2019-05-11T09:53:22.185Z,55.60
2019-05-11T09:55:51.534Z,53.80
2019-05-11T09:58:23.135Z,54.10
2019-05-11T10:00:53.132Z,53.30
2019-05-11T10:03:24.382Z,52.30
2019-05-11T10:05:57.822Z,53.20
2019-05-11T10:08:32.519Z,54.50
2019-05-11T10:11:04.359Z,54.40
2019-05-11T10:13:41.761Z,53.40
2019-05-11T10:16:17.886Z,51.90
2019-05-11T10:18:49.532Z,53.00
2019-05-11T10:21:20.655Z,52.80
2019-05-11T10:23:57.834Z,50.60
2019-05-11T10:26:28.557Z,50.10
2019-05-11T10:29:03.673Z,49.90
2019-05-11T10:31:35.185Z,50.60
2019-05-11T10:34:11.585Z,48.10
2019-05-11T10:36:48.641Z,49.70
2019-05-11T10:39:20.398Z,47.70
2019-05-11T10:41:51.473Z,52.80
2019-05-11T10:44:24.013Z,51.90
2019-05-11T10:46:55.009Z,50.00
2019-05-11T10:49:28.820Z,50.00
2019-05-11T10:52:03.490Z,48.30
2019-05-11T10:54:39.855Z,47.00
2019-05-11T10:57:12.359Z,49.30
2019-05-11T10:59:42.451Z,50.50
2019-05-11T11:02:13.459Z,50.90
2019-05-11T11:04:44.427Z,51.60
2019-05-11T11:07:19.508Z,51.10
2019-05-11T11:09:50.152Z,51.80
2019-05-11T11:12:27.867Z,50.10
2019-05-11T11:15:00.066Z,52.80
2019-05-11T11:17:32.769Z,50.60
2019-05-11T11:20:05.438Z,48.90
2019-05-11T11:22:42.826Z,49.10
2019-05-11T11:25:10.029Z,52.30
2019-05-11T11:27:40.933Z,49.40
2019-05-11T11:30:14.045Z,50.70
2019-05-11T11:32:44.937Z,51.20
2019-05-11T11:35:18.982Z,51.80
2019-05-11T11:37:53.668Z,48.40
2019-05-11T11:40:28.182Z,46.90
2019-05-11T11:43:01.488Z,46.40
2019-05-11T11:45:30.850Z,47.50
2019-05-11T11:48:02.022Z,46.70
2019-05-11T11:50:33.446Z,46.20
2019-05-11T11:53:04.547Z,47.10
2019-05-11T11:55:34.476Z,48.40
2019-05-11T11:58:08.851Z,50.70
2019-05-11T12:00:39.973Z,50.30
2019-05-11T12:03:10.928Z,52.00
2019-05-11T12:05:43.293Z,51.50
2019-05-11T12:08:14.438Z,52.60
2019-05-11T12:10:45.578Z,53.30
2019-05-11T12:13:18.721Z,53.70
2019-05-11T12:15:50.002Z,54.00
2019-05-11T12:18:23.152Z,52.80
2019-05-11T12:20:58.582Z,54.60
2019-05-11T12:23:29.472Z,54.80
2019-05-11T12:26:02.772Z,54.60
2019-05-11T12:28:33.049Z,53.90
2019-05-11T12:31:03.138Z,53.40
2019-05-11T12:33:33.118Z,53.00
2019-05-11T12:36:07.714Z,51.60
2019-05-11T12:38:38.372Z,52.00
2019-05-11T12:41:10.837Z,52.50
2019-05-11T12:43:43.845Z,53.00
2019-05-11T12:46:18.637Z,52.20
2019-05-11T12:48:52.208Z,50.80
2019-05-11T12:51:23.637Z,51.60
2019-05-11T12:53:57.607Z,52.60
2019-05-11T12:56:27.883Z,53.70
2019-05-11T12:59:01.888Z,53.20
2019-05-11T13:01:31.881Z,52.80
2019-05-11T13:04:04.107Z,53.60
2019-05-11T13:06:38.479Z,54.00
2019-05-11T13:09:10.467Z,53.50
2019-05-11T13:11:41.469Z,53.70
2019-05-11T13:14:13.165Z,53.10
2019-05-11T13:16:44.103Z,54.10
2019-05-11T13:19:17.432Z,53.50
2019-05-11T13:21:48.686Z,54.40
2019-05-11T13:24:21.471Z,54.30
2019-05-11T13:26:52.716Z,53.70
2019-05-11T13:29:23.767Z,54.20
2019-05-11T13:31:59.151Z,55.90
2019-05-11T13:34:49.737Z,55.80
2019-05-11T13:37:22.683Z,56.10
2019-05-11T13:39:57.815Z,56.00
2019-05-11T13:42:27.718Z,56.30
2019-05-11T13:45:01.616Z,55.50
2019-05-11T13:47:32.929Z,56.10
2019-05-11T13:50:07.738Z,56.80
2019-05-11T13:52:38.567Z,57.00
2019-05-11T13:55:13.301Z,56.70
2019-05-11T13:57:48.565Z,56.80
2019-05-11T14:00:20.484Z,56.80
2019-05-11T14:02:51.666Z,57.00
2019-05-11T14:05:23.180Z,56.70
2019-05-11T14:07:53.227Z,57.30
2019-05-11T14:10:24.494Z,58.00
2019-05-11T14:12:58.129Z,56.90
2019-05-11T14:15:30.815Z,57.30
2019-05-11T14:18:08.460Z,56.40
2019-05-11T14:20:40.834Z,56.10
2019-05-11T14:23:11.530Z,56.40
2019-05-11T14:25:44.147Z,56.90
2019-05-11T14:28:14.161Z,56.90
2019-05-11T14:30:45.156Z,58.00
2019-05-11T14:35:48.899Z,57.10
2019-05-11T14:38:22.242Z,56.90
2019-05-11T14:40:54.746Z,57.60
2019-05-11T14:43:29.679Z,57.00
2019-05-11T14:46:00.556Z,57.70
2019-05-11T14:48:35.585Z,57.00
2019-05-11T14:51:08.375Z,57.20
2019-05-11T14:53:38.047Z,57.70
2019-05-11T14:56:10.459Z,58.10
2019-05-11T14:58:41.834Z,58.10
2019-05-11T15:01:14.883Z,58.60
2019-05-11T15:03:45.250Z,58.60
2019-05-11T15:06:18.599Z,58.50
2019-05-11T15:08:49.285Z,58.30
2019-05-11T15:11:23.610Z,58.00
2019-05-11T15:13:57.465Z,58.50
2019-05-11T15:16:27.885Z,58.30
2019-05-11T15:21:30.948Z,59.00
2019-05-11T15:24:03.427Z,58.50
2019-05-11T15:26:38.157Z,58.80
2019-05-11T15:29:10.709Z,59.10
2019-05-11T15:31:45.599Z,59.80
2019-05-11T15:34:18.610Z,58.10
2019-05-11T15:36:50.453Z,59.30
2019-05-11T15:39:21.441Z,59.50
2019-05-11T15:41:51.498Z,59.10
2019-05-11T15:44:21.477Z,59.60
2019-05-11T15:46:52.645Z,59.40
2019-05-11T15:49:22.599Z,59.70
2019-05-11T15:51:53.471Z,59.70
2019-05-11T15:54:24.381Z,59.20
2019-05-11T15:56:59.646Z,58.60
2019-05-11T15:59:30.498Z,59.20
2019-05-11T16:02:04.553Z,59.90
2019-05-11T16:04:38.146Z,59.80
2019-05-11T16:07:11.781Z,59.70
2019-05-11T16:09:43.360Z,60.00
2019-05-11T16:12:18.165Z,60.30
2019-05-11T16:14:49.421Z,60.30
2019-05-11T16:17:21.963Z,60.30
2019-05-11T16:19:53.852Z,60.00
2019-05-11T16:22:27.857Z,60.30
2019-05-11T16:24:58.517Z,59.80
2019-05-11T16:27:32.160Z,59.70
2019-05-11T16:30:07.062Z,60.50
2019-05-11T16:32:41.418Z,60.60
2019-05-11T16:35:11.906Z,61.00
2019-05-11T16:37:44.280Z,61.30
2019-05-11T16:40:20.249Z,61.50
2019-05-11T16:42:56.160Z,61.50
2019-05-11T16:45:27.959Z,61.40
2019-05-11T16:47:59.492Z,61.50
2019-05-11T16:50:30.601Z,61.50
2019-05-11T16:53:01.786Z,61.40
2019-05-11T16:55:34.952Z,61.90
2019-05-11T16:58:08.394Z,62.50
2019-05-11T17:00:42.286Z,62.10
2019-05-11T17:03:12.005Z,61.90
2019-05-11T17:05:48.240Z,62.10
2019-05-11T17:08:18.761Z,62.10
2019-05-11T17:10:59.345Z,63.10
2019-05-11T17:13:30.949Z,63.10
2019-05-11T17:16:01.757Z,63.60
2019-05-11T17:18:31.647Z,63.20
2019-05-11T17:21:01.018Z,63.30
2019-05-11T17:23:33.238Z,63.90
2019-05-11T17:26:04.562Z,63.20
2019-05-11T17:28:38.471Z,63.70
2019-05-11T17:31:08.616Z,64.10
2019-05-11T17:33:38.706Z,64.40
2019-05-11T17:36:10.021Z,64.50
2019-05-11T17:38:43.584Z,64.80
2019-05-11T17:41:14.144Z,64.80
2019-05-11T17:43:47.819Z,65.00
2019-05-11T17:46:18.668Z,65.00
2019-05-11T17:48:51.062Z,65.20
2019-05-11T17:51:25.045Z,65.50
2019-05-11T17:53:55.046Z,65.60
2019-05-11T17:56:27.969Z,65.60
2019-05-11T17:58:59.235Z,66.00
2019-05-11T18:01:30.748Z,66.20
2019-05-11T18:04:00.611Z,66.50
2019-05-11T18:06:31.605Z,66.90
2019-05-11T18:09:03.051Z,66.80
2019-05-11T18:11:38.024Z,66.70
2019-05-11T18:14:11.770Z,67.00
2019-05-11T18:16:43.287Z,67.10
2019-05-11T18:19:14.402Z,67.30
2019-05-11T18:21:48.643Z,67.60
2019-05-11T18:24:17.971Z,67.90
2019-05-11T18:26:50.670Z,68.30
2019-05-11T18:29:23.201Z,68.40
2019-05-11T18:31:57.822Z,68.50
2019-05-11T18:34:32.161Z,68.80
2019-05-11T18:37:04.591Z,69.10
2019-05-11T18:39:37.920Z,69.30
2019-05-11T18:42:09.115Z,69.70
2019-05-11T18:44:43.024Z,70.00
2019-05-11T18:47:14.122Z,70.00
2019-05-11T18:49:48.320Z,70.20
2019-05-11T18:52:19.702Z,70.50
2019-05-11T18:54:49.589Z,71.10
2019-05-11T18:57:24.245Z,70.80
2019-05-11T18:59:58.736Z,70.70
2019-05-11T19:02:30.664Z,70.60
2019-05-11T19:05:01.701Z,70.70
2019-05-11T19:07:33.999Z,70.80
2019-05-11T19:10:08.451Z,71.00
2019-05-11T19:12:38.025Z,71.10
2019-05-11T19:15:12.633Z,71.70
2019-05-11T19:17:44.862Z,72.60
2019-05-11T19:20:20.844Z,72.40
2019-05-11T19:22:53.138Z,72.10
2019-05-11T19:25:28.128Z,72.00
2019-05-11T19:27:59.460Z,71.90
2019-05-11T19:30:30.575Z,71.90
2019-05-11T19:33:03.010Z,72.00
2019-05-11T19:35:34.586Z,72.30
2019-05-11T19:38:05.633Z,72.30
2019-05-11T19:40:39.938Z,72.50
2019-05-11T19:43:12.263Z,72.50
2019-05-11T19:45:43.196Z,72.60
2019-05-11T19:48:14.115Z,72.50
2019-05-11T19:51:02.723Z,72.60
2019-05-11T19:53:18.799Z,72.60
2019-05-11T19:55:53.360Z,72.80
2019-05-11T19:58:23.327Z,72.90
2019-05-11T20:00:53.965Z,73.00
2019-05-11T20:03:23.983Z,73.10
2019-05-11T20:05:57.990Z,73.40
2019-05-11T20:08:29.270Z,73.40
2019-05-11T20:11:00.392Z,73.60
2019-05-11T20:13:31.578Z,73.80
2019-05-11T20:16:02.728Z,74.10
2019-05-11T20:18:32.789Z,74.10
2019-05-11T20:21:16.678Z,74.40
2019-05-11T20:23:42.236Z,74.80
2019-05-11T20:26:12.160Z,75.30
2019-05-11T20:28:42.138Z,75.10
2019-05-11T20:31:13.260Z,74.80
2019-05-11T20:33:43.301Z,75.70
2019-05-11T20:36:14.773Z,77.00
2019-05-11T20:38:47.647Z,76.70
2019-05-11T20:41:19.007Z,77.90
2019-05-11T20:43:53.371Z,77.60
2019-05-11T20:46:24.303Z,77.20
2019-05-11T20:48:57.861Z,77.40
2019-05-11T20:51:36.545Z,77.70
2019-05-11T20:54:04.932Z,78.10
2019-05-11T20:56:38.851Z,77.60
2019-05-11T20:59:10.318Z,77.80
2019-05-11T21:01:41.530Z,78.20
2019-05-11T21:04:12.897Z,78.10
2019-05-11T21:06:47.319Z,78.10
2019-05-11T21:09:18.538Z,77.80
2019-05-11T21:11:48.470Z,77.90
2019-05-11T21:14:18.417Z,77.60
2019-05-11T21:16:53.646Z,78.10
2019-05-11T21:19:24.550Z,78.00
2019-05-11T21:21:54.419Z,77.70
2019-05-11T21:24:25.470Z,78.00
2019-05-11T21:26:55.365Z,77.80
2019-05-11T21:29:31.319Z,77.80
2019-05-11T21:32:03.963Z,77.90
2019-05-11T21:34:38.696Z,79.30
2019-05-11T21:37:08.633Z,80.10
2019-05-11T21:39:39.936Z,79.80
2019-05-11T21:42:11.077Z,79.70
2019-05-11T21:44:41.232Z,79.50
2019-05-11T21:47:12.025Z,79.30
2019-05-11T21:49:41.927Z,79.20
2019-05-11T21:52:14.964Z,79.30
2019-05-11T21:54:48.961Z,79.20
2019-05-11T21:57:19.428Z,79.30
2019-05-11T21:59:51.955Z,79.40
2019-05-11T22:02:21.953Z,79.60
2019-05-11T22:04:51.969Z,79.60
2019-05-11T22:07:23.313Z,79.40
2019-05-11T22:09:54.533Z,79.40
2019-05-11T22:12:28.019Z,79.70
2019-05-11T22:14:59.240Z,79.50
2019-05-11T22:17:32.130Z,79.50
2019-05-11T22:20:03.285Z,79.60
2019-05-11T22:22:34.402Z,79.80
2019-05-11T22:25:07.897Z,80.10
2019-05-11T22:27:39.207Z,80.80
2019-05-11T22:30:11.768Z,81.40
2019-05-11T22:32:43.720Z,81.50
2019-05-11T22:35:18.372Z,82.00
2019-05-11T22:37:53.020Z,81.80
2019-05-11T22:40:24.058Z,82.10
2019-05-11T22:42:54.841Z,81.80
2019-05-11T22:45:24.752Z,81.90
2019-05-11T22:47:58.123Z,81.80
2019-05-11T22:50:29.090Z,82.30
2019-05-11T22:53:04.128Z,82.50
2019-05-11T22:55:38.125Z,82.20
2019-05-11T22:58:08.727Z,82.20
2019-05-11T23:00:47.247Z,82.30
2019-05-11T23:03:22.894Z,81.90
2019-05-11T23:05:55.561Z,81.80
2019-05-11T23:08:27.094Z,81.60
2019-05-11T23:10:56.894Z,81.40
2019-05-11T23:13:34.785Z,81.90
2019-05-11T23:16:04.991Z,81.70
2019-05-11T23:18:35.061Z,81.70
2019-05-11T23:21:08.745Z,81.80
2019-05-11T23:23:40.217Z,81.80
2019-05-11T23:26:11.238Z,81.80
2019-05-11T23:28:43.253Z,82.10
2019-05-11T23:31:15.791Z,81.90
2019-05-11T23:33:49.712Z,82.10
2019-05-11T23:36:21.208Z,82.20
2019-05-11T23:38:51.078Z,82.10
2019-05-11T23:41:24.862Z,82.10
2019-05-11T23:43:54.083Z,82.30
2019-05-11T23:46:25.175Z,82.10
2019-05-11T23:48:55.128Z,82.30
2019-05-11T23:51:28.318Z,82.40
2019-05-11T23:53:59.557Z,82.20
2019-05-11T23:56:33.936Z,82.30
2019-05-11T23:59:04.917Z,82.20
